sensor_id;sensor_type;location;lat;lon;timestamp;pressure;altitude;pressure_sealevel;temperature;humidity
47811;BME280;33575;52.600;7.318;2023-07-30T00:01:27;100603.38;;;17.43;98.15
47811;BME280;33575;52.600;7.318;2023-07-30T00:03:58;100604.05;;;17.40;98.65
47811;BME280;33575;52.600;7.318;2023-07-30T00:06:28;100602.33;;;17.36;98.42
47811;BME280;33575;52.600;7.318;2023-07-30T00:08:58;100604.99;;;17.32;98.55
47811;BME280;33575;52.600;7.318;2023-07-30T00:11:28;100606.54;;;17.35;98.19
47811;BME280;33575;52.600;7.318;2023-07-30T00:13:59;100608.88;;;17.32;98.35
47811;BME280;33575;52.600;7.318;2023-07-30T00:16:29;100608.02;;;17.25;98.17
47811;BME280;33575;52.600;7.318;2023-07-30T00:18:59;100606.17;;;17.27;97.97
47811;BME280;33575;52.600;7.318;2023-07-30T00:21:29;100605.42;;;17.27;97.28
47811;BME280;33575;52.600;7.318;2023-07-30T00:24:00;100604.44;;;17.28;97.48
47811;BME280;33575;52.600;7.318;2023-07-30T00:26:30;100606.55;;;17.24;97.70
47811;BME280;33575;52.600;7.318;2023-07-30T00:29:00;100606.48;;;17.24;97.54
47811;BME280;33575;52.600;7.318;2023-07-30T00:31:31;100609.26;;;17.24;97.36
47811;BME280;33575;52.600;7.318;2023-07-30T00:34:01;100606.20;;;17.11;98.05
47811;BME280;33575;52.600;7.318;2023-07-30T00:36:31;100607.78;;;17.11;97.35
47811;BME280;33575;52.600;7.318;2023-07-30T00:39:02;100609.54;;;17.11;97.11
47811;BME280;33575;52.600;7.318;2023-07-30T00:41:32;100608.50;;;17.02;97.31
47811;BME280;33575;52.600;7.318;2023-07-30T00:44:02;100610.32;;;17.00;97.23
47811;BME280;33575;52.600;7.318;2023-07-30T00:46:33;100611.10;;;17.01;96.92
47811;BME280;33575;52.600;7.318;2023-07-30T00:49:03;100613.09;;;16.96;96.94
47811;BME280;33575;52.600;7.318;2023-07-30T00:51:34;100616.01;;;16.92;96.96
47811;BME280;33575;52.600;7.318;2023-07-30T00:54:04;100618.84;;;16.85;97.18
47811;BME280;33575;52.600;7.318;2023-07-30T00:56:34;100619.33;;;16.80;96.94
47811;BME280;33575;52.600;7.318;2023-07-30T00:59:04;100619.25;;;16.76;97.13
47811;BME280;33575;52.600;7.318;2023-07-30T01:01:36;100618.49;;;16.71;97.36
47811;BME280;33575;52.600;7.318;2023-07-30T01:04:05;100617.52;;;16.66;97.51
47811;BME280;33575;52.600;7.318;2023-07-30T01:06:35;100620.35;;;16.65;97.38
47811;BME280;33575;52.600;7.318;2023-07-30T01:09:06;100614.47;;;16.67;96.71
47811;BME280;33575;52.600;7.318;2023-07-30T01:11:37;100614.84;;;16.67;96.75
47811;BME280;33575;52.600;7.318;2023-07-30T01:14:08;100614.70;;;16.66;96.56
47811;BME280;33575;52.600;7.318;2023-07-30T01:16:37;100615.40;;;16.62;96.79
47811;BME280;33575;52.600;7.318;2023-07-30T01:19:08;100621.72;;;16.63;96.47
47811;BME280;33575;52.600;7.318;2023-07-30T01:21:38;100619.60;;;16.57;96.38
47811;BME280;33575;52.600;7.318;2023-07-30T01:24:08;100623.95;;;16.60;96.30
47811;BME280;33575;52.600;7.318;2023-07-30T01:26:43;100625.37;;;16.63;96.02
47811;BME280;33575;52.600;7.318;2023-07-30T01:29:11;100627.67;;;16.64;95.74
47811;BME280;33575;52.600;7.318;2023-07-30T01:31:40;100631.24;;;16.61;95.69
47811;BME280;33575;52.600;7.318;2023-07-30T01:34:10;100636.69;;;16.54;95.76
47811;BME280;33575;52.600;7.318;2023-07-30T01:36:40;100638.07;;;16.48;95.83
47811;BME280;33575;52.600;7.318;2023-07-30T01:39:11;100638.69;;;16.43;95.71
47811;BME280;33575;52.600;7.318;2023-07-30T01:41:41;100646.71;;;16.39;95.89
47811;BME280;33575;52.600;7.318;2023-07-30T01:44:11;100648.99;;;16.32;95.92
47811;BME280;33575;52.600;7.318;2023-07-30T01:46:41;100653.98;;;16.26;96.15
47811;BME280;33575;52.600;7.318;2023-07-30T01:49:11;100652.88;;;16.22;96.01
47811;BME280;33575;52.600;7.318;2023-07-30T01:51:42;100651.69;;;16.21;95.88
47811;BME280;33575;52.600;7.318;2023-07-30T01:54:12;100651.38;;;16.16;95.93
47811;BME280;33575;52.600;7.318;2023-07-30T01:56:42;100656.16;;;16.14;96.16
47811;BME280;33575;52.600;7.318;2023-07-30T01:59:13;100657.93;;;16.13;96.11
47811;BME280;33575;52.600;7.318;2023-07-30T02:01:43;100654.65;;;16.13;95.87
47811;BME280;33575;52.600;7.318;2023-07-30T02:04:13;100654.96;;;16.10;96.25
47811;BME280;33575;52.600;7.318;2023-07-30T02:06:44;100655.35;;;16.10;95.84
47811;BME280;33575;52.600;7.318;2023-07-30T02:09:14;100658.38;;;16.01;96.13
47811;BME280;33575;52.600;7.318;2023-07-30T02:11:44;100654.61;;;15.96;96.00
47811;BME280;33575;52.600;7.318;2023-07-30T02:14:15;100655.70;;;15.94;96.09
47811;BME280;33575;52.600;7.318;2023-07-30T02:16:45;100657.18;;;15.86;96.42
47811;BME280;33575;52.600;7.318;2023-07-30T02:19:15;100658.36;;;15.80;96.56
47811;BME280;33575;52.600;7.318;2023-07-30T02:21:46;100656.28;;;15.67;97.31
47811;BME280;33575;52.600;7.318;2023-07-30T02:24:16;100655.91;;;15.68;97.23
47811;BME280;33575;52.600;7.318;2023-07-30T02:26:46;100652.65;;;15.68;97.45
47811;BME280;33575;52.600;7.318;2023-07-30T02:29:17;100648.12;;;15.71;97.17
47811;BME280;33575;52.600;7.318;2023-07-30T02:31:47;100649.59;;;15.75;96.93
47811;BME280;33575;52.600;7.318;2023-07-30T02:34:17;100648.00;;;15.71;97.25
47811;BME280;33575;52.600;7.318;2023-07-30T02:36:49;100649.21;;;15.73;96.90
47811;BME280;33575;52.600;7.318;2023-07-30T02:39:18;100648.12;;;15.68;97.36
47811;BME280;33575;52.600;7.318;2023-07-30T02:41:49;100649.92;;;15.66;97.58
47811;BME280;33575;52.600;7.318;2023-07-30T02:44:19;100651.19;;;15.65;97.85
47811;BME280;33575;52.600;7.318;2023-07-30T02:46:49;100646.99;;;15.65;97.70
47811;BME280;33575;52.600;7.318;2023-07-30T02:49:20;100648.27;;;15.60;97.88
47811;BME280;33575;52.600;7.318;2023-07-30T02:51:50;100647.10;;;15.58;98.23
47811;BME280;33575;52.600;7.318;2023-07-30T02:54:20;100647.99;;;15.57;98.18
47811;BME280;33575;52.600;7.318;2023-07-30T02:56:51;100649.48;;;15.56;98.21
47811;BME280;33575;52.600;7.318;2023-07-30T02:59:22;100648.57;;;15.51;98.49
47811;BME280;33575;52.600;7.318;2023-07-30T03:01:52;100644.51;;;15.51;98.43
47811;BME280;33575;52.600;7.318;2023-07-30T03:04:22;100639.12;;;15.56;98.26
47811;BME280;33575;52.600;7.318;2023-07-30T03:06:53;100642.73;;;15.56;98.45
47811;BME280;33575;52.600;7.318;2023-07-30T03:09:23;100642.56;;;15.55;98.24
47811;BME280;33575;52.600;7.318;2023-07-30T03:11:53;100646.40;;;15.55;98.19
47811;BME280;33575;52.600;7.318;2023-07-30T03:14:24;100642.84;;;15.51;98.52
47811;BME280;33575;52.600;7.318;2023-07-30T03:16:54;100641.82;;;15.48;98.60
47811;BME280;33575;52.600;7.318;2023-07-30T03:19:24;100643.54;;;15.47;98.52
47811;BME280;33575;52.600;7.318;2023-07-30T03:21:54;100640.24;;;15.51;98.48
47811;BME280;33575;52.600;7.318;2023-07-30T03:24:25;100641.64;;;15.47;98.39
47811;BME280;33575;52.600;7.318;2023-07-30T03:26:55;100637.35;;;15.45;98.43
47811;BME280;33575;52.600;7.318;2023-07-30T03:29:26;100640.01;;;15.44;98.74
47811;BME280;33575;52.600;7.318;2023-07-30T03:31:56;100641.01;;;15.34;98.92
47811;BME280;33575;52.600;7.318;2023-07-30T03:34:26;100639.46;;;15.45;98.48
47811;BME280;33575;52.600;7.318;2023-07-30T03:36:59;100642.30;;;15.40;98.70
47811;BME280;33575;52.600;7.318;2023-07-30T03:39:27;100641.83;;;15.37;98.98
47811;BME280;33575;52.600;7.318;2023-07-30T03:41:57;100641.80;;;15.34;99.08
47811;BME280;33575;52.600;7.318;2023-07-30T03:44:28;100640.20;;;15.17;100.00
47811;BME280;33575;52.600;7.318;2023-07-30T03:46:58;100640.79;;;15.28;99.67
47811;BME280;33575;52.600;7.318;2023-07-30T03:49:29;100643.81;;;15.19;99.92
47811;BME280;33575;52.600;7.318;2023-07-30T03:51:59;100645.05;;;15.30;99.41
47811;BME280;33575;52.600;7.318;2023-07-30T03:54:29;100643.91;;;15.28;99.36
47811;BME280;33575;52.600;7.318;2023-07-30T03:57:00;100644.69;;;15.27;99.63
47811;BME280;33575;52.600;7.318;2023-07-30T03:59:30;100648.40;;;15.31;99.45
47811;BME280;33575;52.600;7.318;2023-07-30T04:02:01;100646.31;;;15.32;99.56
47811;BME280;33575;52.600;7.318;2023-07-30T04:04:31;100651.16;;;15.31;99.67
47811;BME280;33575;52.600;7.318;2023-07-30T04:07:01;100652.37;;;15.33;99.38
47811;BME280;33575;52.600;7.318;2023-07-30T04:09:32;100649.97;;;15.31;99.77
47811;BME280;33575;52.600;7.318;2023-07-30T04:12:02;100647.92;;;15.31;99.90
47811;BME280;33575;52.600;7.318;2023-07-30T04:14:32;100651.16;;;15.31;99.79
47811;BME280;33575;52.600;7.318;2023-07-30T04:17:03;100650.74;;;15.37;99.84
47811;BME280;33575;52.600;7.318;2023-07-30T04:19:33;100647.93;;;15.40;100.00
47811;BME280;33575;52.600;7.318;2023-07-30T04:22:03;100648.83;;;15.42;99.76
47811;BME280;33575;52.600;7.318;2023-07-30T04:24:34;100653.38;;;15.41;100.00
47811;BME280;33575;52.600;7.318;2023-07-30T04:27:04;100655.88;;;15.47;99.61
47811;BME280;33575;52.600;7.318;2023-07-30T04:29:35;100654.91;;;15.43;99.84
47811;BME280;33575;52.600;7.318;2023-07-30T04:32:06;100654.97;;;15.48;99.56
47811;BME280;33575;52.600;7.318;2023-07-30T04:34:35;100656.99;;;15.47;99.72
47811;BME280;33575;52.600;7.318;2023-07-30T04:37:06;100653.10;;;15.45;100.00
47811;BME280;33575;52.600;7.318;2023-07-30T04:39:36;100653.43;;;15.54;99.94
47811;BME280;33575;52.600;7.318;2023-07-30T04:42:06;100654.23;;;15.56;100.00
47811;BME280;33575;52.600;7.318;2023-07-30T04:44:37;100657.30;;;15.59;99.95
47811;BME280;33575;52.600;7.318;2023-07-30T04:47:07;100658.69;;;15.53;100.00
47811;BME280;33575;52.600;7.318;2023-07-30T04:49:37;100661.94;;;15.54;100.00
47811;BME280;33575;52.600;7.318;2023-07-30T04:52:08;100661.64;;;15.55;100.00
47811;BME280;33575;52.600;7.318;2023-07-30T04:54:38;100663.73;;;15.63;100.00
47811;BME280;33575;52.600;7.318;2023-07-30T04:57:09;100661.10;;;15.61;100.00
47811;BME280;33575;52.600;7.318;2023-07-30T04:59:39;100665.38;;;15.62;100.00
47811;BME280;33575;52.600;7.318;2023-07-30T05:02:09;100663.46;;;15.60;100.00
47811;BME280;33575;52.600;7.318;2023-07-30T05:04:40;100661.79;;;15.59;100.00
47811;BME280;33575;52.600;7.318;2023-07-30T05:07:10;100666.77;;;15.66;100.00
47811;BME280;33575;52.600;7.318;2023-07-30T05:09:40;100663.88;;;15.74;100.00
47811;BME280;33575;52.600;7.318;2023-07-30T05:12:11;100667.57;;;15.73;100.00
47811;BME280;33575;52.600;7.318;2023-07-30T05:14:41;100666.81;;;15.73;100.00
47811;BME280;33575;52.600;7.318;2023-07-30T05:17:11;100665.70;;;15.73;100.00
47811;BME280;33575;52.600;7.318;2023-07-30T05:19:42;100665.68;;;15.76;100.00
47811;BME280;33575;52.600;7.318;2023-07-30T05:22:12;100667.56;;;15.84;100.00
47811;BME280;33575;52.600;7.318;2023-07-30T05:24:42;100669.89;;;15.83;100.00
47811;BME280;33575;52.600;7.318;2023-07-30T05:27:13;100668.88;;;15.76;100.00
47811;BME280;33575;52.600;7.318;2023-07-30T05:29:43;100671.39;;;15.81;100.00
47811;BME280;33575;52.600;7.318;2023-07-30T05:32:13;100668.42;;;15.82;100.00
47811;BME280;33575;52.600;7.318;2023-07-30T05:34:44;100672.29;;;15.82;100.00
47811;BME280;33575;52.600;7.318;2023-07-30T05:37:14;100672.14;;;15.87;100.00
47811;BME280;33575;52.600;7.318;2023-07-30T05:39:45;100675.65;;;15.89;100.00
47811;BME280;33575;52.600;7.318;2023-07-30T05:42:15;100672.12;;;15.96;100.00
47811;BME280;33575;52.600;7.318;2023-07-30T05:44:45;100675.45;;;15.94;100.00
47811;BME280;33575;52.600;7.318;2023-07-30T05:47:16;100685.95;;;15.98;100.00
47811;BME280;33575;52.600;7.318;2023-07-30T05:49:46;100685.10;;;16.10;100.00
47811;BME280;33575;52.600;7.318;2023-07-30T05:52:16;100686.50;;;15.98;100.00
47811;BME280;33575;52.600;7.318;2023-07-30T05:54:46;100678.50;;;15.90;100.00
47811;BME280;33575;52.600;7.318;2023-07-30T05:57:16;100682.95;;;16.13;100.00
47811;BME280;33575;52.600;7.318;2023-07-30T05:59:47;100686.00;;;16.09;100.00
47811;BME280;33575;52.600;7.318;2023-07-30T06:02:17;100682.74;;;16.05;100.00
47811;BME280;33575;52.600;7.318;2023-07-30T06:04:48;100685.84;;;16.01;100.00
47811;BME280;33575;52.600;7.318;2023-07-30T06:07:18;100693.02;;;15.96;100.00
47811;BME280;33575;52.600;7.318;2023-07-30T06:09:48;100693.03;;;16.06;100.00
47811;BME280;33575;52.600;7.318;2023-07-30T06:12:19;100693.65;;;16.01;100.00
47811;BME280;33575;52.600;7.318;2023-07-30T06:14:50;100698.36;;;16.04;100.00
47811;BME280;33575;52.600;7.318;2023-07-30T06:17:20;100699.53;;;16.09;100.00
47811;BME280;33575;52.600;7.318;2023-07-30T06:19:50;100701.36;;;16.12;100.00
47811;BME280;33575;52.600;7.318;2023-07-30T06:22:20;100701.82;;;16.25;100.00
47811;BME280;33575;52.600;7.318;2023-07-30T06:24:51;100701.87;;;16.25;100.00
47811;BME280;33575;52.600;7.318;2023-07-30T06:27:21;100703.52;;;16.23;100.00
47811;BME280;33575;52.600;7.318;2023-07-30T06:29:52;100706.22;;;16.29;100.00
47811;BME280;33575;52.600;7.318;2023-07-30T06:32:22;100700.61;;;16.18;100.00
47811;BME280;33575;52.600;7.318;2023-07-30T06:34:52;100710.80;;;16.38;100.00
47811;BME280;33575;52.600;7.318;2023-07-30T06:37:23;100708.39;;;16.41;100.00
47811;BME280;33575;52.600;7.318;2023-07-30T06:39:54;100712.09;;;16.48;100.00
47811;BME280;33575;52.600;7.318;2023-07-30T06:42:25;100711.84;;;16.39;100.00
47811;BME280;33575;52.600;7.318;2023-07-30T06:44:55;100709.25;;;16.45;100.00
47811;BME280;33575;52.600;7.318;2023-07-30T06:47:25;100710.65;;;16.55;100.00
47811;BME280;33575;52.600;7.318;2023-07-30T06:49:55;100702.54;;;16.50;100.00
47811;BME280;33575;52.600;7.318;2023-07-30T06:52:25;100703.39;;;16.60;100.00
47811;BME280;33575;52.600;7.318;2023-07-30T06:54:55;100703.13;;;16.71;100.00
47811;BME280;33575;52.600;7.318;2023-07-30T06:57:26;100701.22;;;16.81;100.00
47811;BME280;33575;52.600;7.318;2023-07-30T06:59:57;100704.18;;;16.88;100.00
47811;BME280;33575;52.600;7.318;2023-07-30T07:02:27;100707.95;;;16.97;100.00
47811;BME280;33575;52.600;7.318;2023-07-30T07:04:58;100714.42;;;16.90;100.00
47811;BME280;33575;52.600;7.318;2023-07-30T07:07:29;100715.98;;;16.98;100.00
47811;BME280;33575;52.600;7.318;2023-07-30T07:10:00;100718.75;;;16.98;100.00
47811;BME280;33575;52.600;7.318;2023-07-30T07:12:30;100716.61;;;16.95;100.00
47811;BME280;33575;52.600;7.318;2023-07-30T07:15:00;100718.42;;;16.85;100.00
47811;BME280;33575;52.600;7.318;2023-07-30T07:17:30;100719.96;;;16.98;100.00
47811;BME280;33575;52.600;7.318;2023-07-30T07:20:01;100715.63;;;17.06;100.00
47811;BME280;33575;52.600;7.318;2023-07-30T07:22:31;100714.34;;;17.08;100.00
47811;BME280;33575;52.600;7.318;2023-07-30T07:25:02;100715.38;;;17.06;100.00
47811;BME280;33575;52.600;7.318;2023-07-30T07:27:32;100717.06;;;17.26;100.00
47811;BME280;33575;52.600;7.318;2023-07-30T07:30:03;100719.90;;;17.09;99.44
47811;BME280;33575;52.600;7.318;2023-07-30T07:32:33;100720.93;;;17.12;100.00
47811;BME280;33575;52.600;7.318;2023-07-30T07:35:04;100723.61;;;17.24;100.00
47811;BME280;33575;52.600;7.318;2023-07-30T07:37:34;100726.40;;;17.36;100.00
47811;BME280;33575;52.600;7.318;2023-07-30T07:40:06;100727.81;;;17.34;100.00
47811;BME280;33575;52.600;7.318;2023-07-30T07:42:35;100723.65;;;17.42;100.00
47811;BME280;33575;52.600;7.318;2023-07-30T07:45:07;100726.53;;;17.44;100.00
47811;BME280;33575;52.600;7.318;2023-07-30T07:47:36;100721.30;;;17.52;100.00
47811;BME280;33575;52.600;7.318;2023-07-30T07:50:07;100728.06;;;17.49;99.27
47811;BME280;33575;52.600;7.318;2023-07-30T07:52:37;100719.98;;;17.38;99.69
47811;BME280;33575;52.600;7.318;2023-07-30T07:55:08;100719.98;;;17.50;99.19
47811;BME280;33575;52.600;7.318;2023-07-30T07:57:39;100716.76;;;17.49;99.84
47811;BME280;33575;52.600;7.318;2023-07-30T08:00:09;100721.34;;;17.54;99.08
47811;BME280;33575;52.600;7.318;2023-07-30T08:02:39;100728.49;;;17.65;98.71
47811;BME280;33575;52.600;7.318;2023-07-30T08:05:09;100726.44;;;17.65;99.18
47811;BME280;33575;52.600;7.318;2023-07-30T08:07:39;100727.88;;;17.68;99.78
47811;BME280;33575;52.600;7.318;2023-07-30T08:10:10;100727.31;;;17.79;99.02
47811;BME280;33575;52.600;7.318;2023-07-30T08:12:41;100727.69;;;17.71;97.00
47811;BME280;33575;52.600;7.318;2023-07-30T08:15:11;100731.40;;;17.84;97.12
47811;BME280;33575;52.600;7.318;2023-07-30T08:17:42;100728.76;;;17.91;98.15
47811;BME280;33575;52.600;7.318;2023-07-30T08:20:13;100719.78;;;18.01;98.72
47811;BME280;33575;52.600;7.318;2023-07-30T08:22:43;100719.50;;;17.96;98.51
47811;BME280;33575;52.600;7.318;2023-07-30T08:25:14;100719.86;;;17.97;97.34
47811;BME280;33575;52.600;7.318;2023-07-30T08:27:45;100716.63;;;17.99;97.92
47811;BME280;33575;52.600;7.318;2023-07-30T08:30:15;100719.96;;;18.06;98.51
47811;BME280;33575;52.600;7.318;2023-07-30T08:32:45;100712.23;;;17.93;96.94
47811;BME280;33575;52.600;7.318;2023-07-30T08:35:16;100717.67;;;18.02;98.45
47811;BME280;33575;52.600;7.318;2023-07-30T08:37:46;100716.33;;;18.07;98.64
47811;BME280;33575;52.600;7.318;2023-07-30T08:40:21;100716.15;;;18.27;98.31
47811;BME280;33575;52.600;7.318;2023-07-30T08:42:47;100713.66;;;18.40;98.62
47811;BME280;33575;52.600;7.318;2023-07-30T08:45:18;100716.73;;;18.41;98.10
47811;BME280;33575;52.600;7.318;2023-07-30T08:47:48;100718.69;;;18.34;97.52
47811;BME280;33575;52.600;7.318;2023-07-30T08:50:18;100712.27;;;18.27;97.73
47811;BME280;33575;52.600;7.318;2023-07-30T08:52:48;100712.55;;;18.42;97.60
47811;BME280;33575;52.600;7.318;2023-07-30T08:55:19;100715.15;;;18.44;98.33
47811;BME280;33575;52.600;7.318;2023-07-30T08:57:49;100714.20;;;18.48;98.03
47811;BME280;33575;52.600;7.318;2023-07-30T09:00:19;100716.34;;;18.60;96.27
47811;BME280;33575;52.600;7.318;2023-07-30T09:02:52;100713.32;;;18.56;97.09
47811;BME280;33575;52.600;7.318;2023-07-30T09:05:20;100714.95;;;18.71;97.08
47811;BME280;33575;52.600;7.318;2023-07-30T09:07:50;100709.29;;;18.80;96.62
47811;BME280;33575;52.600;7.318;2023-07-30T09:10:20;100713.74;;;18.81;94.54
47811;BME280;33575;52.600;7.318;2023-07-30T09:12:52;100708.98;;;18.85;95.80
47811;BME280;33575;52.600;7.318;2023-07-30T09:15:29;100707.06;;;18.92;95.55
47811;BME280;33575;52.600;7.318;2023-07-30T09:17:55;100705.83;;;18.83;93.73
47811;BME280;33575;52.600;7.318;2023-07-30T09:20:21;100715.50;;;18.70;94.97
47811;BME280;33575;52.600;7.318;2023-07-30T09:22:52;100714.80;;;18.84;93.65
47811;BME280;33575;52.600;7.318;2023-07-30T09:25:22;100711.58;;;18.84;91.91
47811;BME280;33575;52.600;7.318;2023-07-30T09:27:53;100722.99;;;18.84;93.72
47811;BME280;33575;52.600;7.318;2023-07-30T09:30:23;100718.90;;;18.87;92.82
47811;BME280;33575;52.600;7.318;2023-07-30T09:32:54;100719.64;;;18.89;92.83
47811;BME280;33575;52.600;7.318;2023-07-30T09:35:25;100719.68;;;18.94;91.59
47811;BME280;33575;52.600;7.318;2023-07-30T09:37:58;100718.34;;;18.92;91.76
47811;BME280;33575;52.600;7.318;2023-07-30T09:40:30;100718.62;;;18.82;90.55
47811;BME280;33575;52.600;7.318;2023-07-30T09:42:57;100720.04;;;19.06;91.68
47811;BME280;33575;52.600;7.318;2023-07-30T09:45:26;100723.64;;;18.97;89.44
47811;BME280;33575;52.600;7.318;2023-07-30T09:47:56;100727.63;;;18.98;90.78
47811;BME280;33575;52.600;7.318;2023-07-30T09:50:26;100728.15;;;19.03;88.84
47811;BME280;33575;52.600;7.318;2023-07-30T09:52:58;100730.13;;;19.04;88.70
47811;BME280;33575;52.600;7.318;2023-07-30T09:55:27;100732.96;;;18.89;89.04
47811;BME280;33575;52.600;7.318;2023-07-30T09:57:57;100737.72;;;18.83;88.71
47811;BME280;33575;52.600;7.318;2023-07-30T10:00:28;100739.09;;;18.78;87.67
47811;BME280;33575;52.600;7.318;2023-07-30T10:02:58;100736.86;;;18.74;89.83
47811;BME280;33575;52.600;7.318;2023-07-30T10:05:33;100734.82;;;18.79;90.55
47811;BME280;33575;52.600;7.318;2023-07-30T10:08:00;100736.85;;;18.66;88.76
47811;BME280;33575;52.600;7.318;2023-07-30T10:10:29;100737.32;;;18.57;86.29
47811;BME280;33575;52.600;7.318;2023-07-30T10:13:01;100736.29;;;18.54;88.61
47811;BME280;33575;52.600;7.318;2023-07-30T10:15:29;100733.88;;;18.64;89.24
47811;BME280;33575;52.600;7.318;2023-07-30T10:18:02;100737.36;;;18.76;89.67
47811;BME280;33575;52.600;7.318;2023-07-30T10:20:31;100734.87;;;18.82;89.60
47811;BME280;33575;52.600;7.318;2023-07-30T10:23:00;100743.26;;;18.82;88.36
47811;BME280;33575;52.600;7.318;2023-07-30T10:28:00;100750.52;;;18.95;86.60
47811;BME280;33575;52.600;7.318;2023-07-30T10:30:32;100749.88;;;18.67;87.74
47811;BME280;33575;52.600;7.318;2023-07-30T10:33:03;100746.78;;;18.68;87.14
47811;BME280;33575;52.600;7.318;2023-07-30T10:35:36;100760.09;;;18.59;87.48
47811;BME280;33575;52.600;7.318;2023-07-30T10:40:32;100763.48;;;18.47;87.06
47811;BME280;33575;52.600;7.318;2023-07-30T10:43:02;100764.80;;;18.33;89.14
47811;BME280;33575;52.600;7.318;2023-07-30T10:45:33;100759.47;;;18.20;91.50
47811;BME280;33575;52.600;7.318;2023-07-30T10:48:04;100773.93;;;18.00;93.06
47811;BME280;33575;52.600;7.318;2023-07-30T10:50:33;100782.56;;;17.68;92.73
47811;BME280;33575;52.600;7.318;2023-07-30T10:53:03;100776.25;;;17.47;94.36
47811;BME280;33575;52.600;7.318;2023-07-30T10:55:34;100769.47;;;17.73;95.33
47811;BME280;33575;52.600;7.318;2023-07-30T10:58:04;100768.41;;;17.79;96.62
47811;BME280;33575;52.600;7.318;2023-07-30T11:00:34;100766.71;;;17.76;97.44
47811;BME280;33575;52.600;7.318;2023-07-30T11:03:04;100768.78;;;17.93;95.79
47811;BME280;33575;52.600;7.318;2023-07-30T11:05:38;100769.08;;;17.97;95.86
47811;BME280;33575;52.600;7.318;2023-07-30T11:08:05;100766.23;;;17.98;95.67
47811;BME280;33575;52.600;7.318;2023-07-30T11:10:42;100760.27;;;17.80;94.46
47811;BME280;33575;52.600;7.318;2023-07-30T11:13:05;100762.02;;;17.96;94.41
47811;BME280;33575;52.600;7.318;2023-07-30T11:15:41;100763.45;;;17.90;93.26
47811;BME280;33575;52.600;7.318;2023-07-30T11:18:06;100771.03;;;18.02;94.34
47811;BME280;33575;52.600;7.318;2023-07-30T11:20:36;100769.79;;;18.01;94.87
47811;BME280;33575;52.600;7.318;2023-07-30T11:25:37;100763.61;;;18.14;95.19
47811;BME280;33575;52.600;7.318;2023-07-30T11:28:07;100773.29;;;18.05;95.42
47811;BME280;33575;52.600;7.318;2023-07-30T11:30:38;100774.83;;;18.27;95.90
47811;BME280;33575;52.600;7.318;2023-07-30T11:33:08;100770.59;;;18.36;95.78
47811;BME280;33575;52.600;7.318;2023-07-30T11:35:38;100769.26;;;18.51;94.73
47811;BME280;33575;52.600;7.318;2023-07-30T11:38:09;100767.20;;;18.28;93.08
47811;BME280;33575;52.600;7.318;2023-07-30T11:40:40;100773.34;;;18.32;90.00
47811;BME280;33575;52.600;7.318;2023-07-30T11:43:10;100783.16;;;18.24;92.33
47811;BME280;33575;52.600;7.318;2023-07-30T11:45:40;100781.38;;;18.16;91.32
47811;BME280;33575;52.600;7.318;2023-07-30T11:48:11;100786.23;;;18.14;92.08
47811;BME280;33575;52.600;7.318;2023-07-30T11:50:45;100791.27;;;18.02;91.75
47811;BME280;33575;52.600;7.318;2023-07-30T11:53:11;100781.78;;;18.04;89.33
47811;BME280;33575;52.600;7.318;2023-07-30T11:55:42;100782.73;;;18.08;89.93
47811;BME280;33575;52.600;7.318;2023-07-30T11:58:12;100779.82;;;17.97;90.11
47811;BME280;33575;52.600;7.318;2023-07-30T12:00:43;100776.30;;;18.09;90.49
47811;BME280;33575;52.600;7.318;2023-07-30T12:03:13;100773.83;;;18.19;89.83
47811;BME280;33575;52.600;7.318;2023-07-30T12:05:43;100782.44;;;18.19;89.88
47811;BME280;33575;52.600;7.318;2023-07-30T12:08:16;100786.11;;;18.06;90.46
47811;BME280;33575;52.600;7.318;2023-07-30T12:10:44;100781.41;;;17.98;89.13
47811;BME280;33575;52.600;7.318;2023-07-30T12:13:16;100788.59;;;18.21;89.63
47811;BME280;33575;52.600;7.318;2023-07-30T12:15:50;100785.59;;;18.01;89.06
47811;BME280;33575;52.600;7.318;2023-07-30T12:18:15;100783.58;;;18.04;88.94
47811;BME280;33575;52.600;7.318;2023-07-30T12:20:45;100782.12;;;18.03;88.73
47811;BME280;33575;52.600;7.318;2023-07-30T12:23:15;100784.05;;;17.93;88.81
47811;BME280;33575;52.600;7.318;2023-07-30T12:25:46;100785.22;;;18.02;87.78
47811;BME280;33575;52.600;7.318;2023-07-30T12:28:16;100776.36;;;18.10;89.75
47811;BME280;33575;52.600;7.318;2023-07-30T12:30:46;100788.73;;;18.32;86.85
47811;BME280;33575;52.600;7.318;2023-07-30T12:33:17;100783.10;;;18.38;83.52
47811;BME280;33575;52.600;7.318;2023-07-30T12:35:47;100785.45;;;18.51;82.91
47811;BME280;33575;52.600;7.318;2023-07-30T12:38:17;100780.78;;;18.60;82.70
47811;BME280;33575;52.600;7.318;2023-07-30T12:40:48;100779.14;;;18.73;84.34
47811;BME280;33575;52.600;7.318;2023-07-30T12:43:18;100775.23;;;18.75;82.40
47811;BME280;33575;52.600;7.318;2023-07-30T12:45:48;100773.35;;;18.97;82.99
47811;BME280;33575;52.600;7.318;2023-07-30T12:48:18;100770.03;;;19.03;82.41
47811;BME280;33575;52.600;7.318;2023-07-30T12:50:49;100775.21;;;19.16;83.30
47811;BME280;33575;52.600;7.318;2023-07-30T12:53:19;100777.36;;;19.18;84.17
47811;BME280;33575;52.600;7.318;2023-07-30T12:55:49;100768.94;;;19.32;82.74
47811;BME280;33575;52.600;7.318;2023-07-30T12:58:19;100771.99;;;19.49;81.54
47811;BME280;33575;52.600;7.318;2023-07-30T13:00:50;100771.16;;;19.56;81.24
47811;BME280;33575;52.600;7.318;2023-07-30T13:03:20;100767.18;;;19.61;79.48
47811;BME280;33575;52.600;7.318;2023-07-30T13:05:50;100765.03;;;19.60;79.77
47811;BME280;33575;52.600;7.318;2023-07-30T13:08:20;100770.45;;;19.88;80.77
47811;BME280;33575;52.600;7.318;2023-07-30T13:10:51;100775.62;;;20.04;82.30